createdAt,value
2023-05-17T00:00:10.157Z,99420.84
2023-05-17T00:02:37.908Z,99421.16
2023-05-17T00:05:11.956Z,99425.72
2023-05-17T00:07:39.107Z,99425.72
2023-05-17T00:10:07.143Z,99419.56
2023-05-17T00:12:34.930Z,99418.88
2023-05-17T00:15:02.098Z,99419.84
2023-05-17T00:17:31.600Z,99418.88
2023-05-17T00:19:58.978Z,99419.00
2023-05-17T00:22:26.447Z,99422.84
2023-05-17T00:24:53.876Z,99429.84
2023-05-17T00:27:21.308Z,99407.84
2023-05-17T00:29:48.820Z,99420.41
2023-05-17T00:32:16.338Z,99423.34
2023-05-17T00:34:43.666Z,99429.69
2023-05-17T00:37:11.226Z,99438.56
2023-05-17T00:39:38.617Z,99428.97
2023-05-17T00:42:06.723Z,99433.56
2023-05-17T00:44:34.130Z,99435.66
2023-05-17T00:47:01.573Z,99440.94
2023-05-17T00:49:29.380Z,99435.66
2023-05-17T00:51:57.048Z,99442.75
2023-05-17T00:54:26.988Z,99448.88
2023-05-17T00:56:57.393Z,99449.03
2023-05-17T00:59:26.446Z,99450.84
2023-05-17T01:01:55.110Z,99441.25
2023-05-17T01:04:23.582Z,99446.53
2023-05-17T01:06:51.091Z,99453.59
2023-05-17T01:09:18.733Z,99458.91
2023-05-17T01:12:30.026Z,99466.31
2023-05-17T01:15:09.048Z,99467.25
2023-05-17T01:17:55.066Z,99456.69
2023-05-17T01:20:54.536Z,99455.91
2023-05-17T01:23:56.588Z,99458.88
2023-05-17T01:26:47.518Z,99460.09
2023-05-17T01:29:17.459Z,99467.34
2023-05-17T01:31:46.447Z,99467.50
2023-05-17T01:34:14.078Z,99463.97
2023-05-17T01:36:43.434Z,99474.66
2023-05-17T01:39:16.683Z,99460.50
2023-05-17T01:42:04.368Z,99470.34
2023-05-17T01:45:03.564Z,99475.81
2023-05-17T01:48:04.306Z,99487.44
2023-05-17T01:50:34.996Z,99488.50
2023-05-17T01:53:12.252Z,99488.56
2023-05-17T01:56:07.846Z,99493.13
2023-05-17T01:58:45.581Z,99498.63
2023-05-17T02:01:16.294Z,99491.75
2023-05-17T02:03:44.066Z,99501.47
2023-05-17T02:06:12.640Z,99488.34
2023-05-17T02:08:39.981Z,99497.13
2023-05-17T02:11:07.643Z,99498.75
2023-05-17T02:13:34.976Z,99496.84
2023-05-17T02:16:03.329Z,99495.06
2023-05-17T02:18:32.942Z,99493.34
2023-05-17T02:21:01.694Z,99489.31
2023-05-17T02:23:28.902Z,99495.44
2023-05-17T02:25:57.324Z,99484.81
2023-05-17T02:28:24.754Z,99491.88
2023-05-17T02:30:55.014Z,99486.47
2023-05-17T02:33:22.773Z,99502.22
2023-05-17T02:35:50.794Z,99488.03
2023-05-17T02:38:18.159Z,99491.63
2023-05-17T02:40:45.862Z,99492.44
2023-05-17T02:43:13.049Z,99488.94
2023-05-17T02:45:40.690Z,99504.19
2023-05-17T02:48:09.115Z,99507.69
2023-05-17T02:50:36.597Z,99507.53
2023-05-17T02:53:04.181Z,99512.78
2023-05-17T02:55:33.596Z,99508.56
2023-05-17T02:58:00.955Z,99516.47
2023-05-17T03:00:28.526Z,99509.31
2023-05-17T03:02:56.033Z,99513.81
2023-05-17T03:05:23.273Z,99508.53
2023-05-17T03:07:50.919Z,99517.38
2023-05-17T03:10:18.357Z,99510.91
2023-05-17T03:12:51.683Z,99524.06
2023-05-17T03:15:19.514Z,99526.66
2023-05-17T03:17:47.879Z,99525.88
2023-05-17T03:20:15.271Z,99537.31
2023-05-17T03:22:42.695Z,99535.38
2023-05-17T03:25:10.145Z,99529.94
2023-05-17T03:27:37.557Z,99527.38
2023-05-17T03:30:11.627Z,99534.53
2023-05-17T03:32:42.403Z,99536.28
2023-05-17T03:35:10.036Z,99530.88
2023-05-17T03:37:37.589Z,99537.84
2023-05-17T03:40:05.743Z,99525.47
2023-05-17T03:42:33.216Z,99530.88
2023-05-17T03:45:01.871Z,99526.41
2023-05-17T03:47:30.408Z,99528.22
2023-05-17T03:49:57.776Z,99535.22
2023-05-17T03:52:25.231Z,99533.53
2023-05-17T03:54:52.665Z,99529.16
2023-05-17T03:57:22.026Z,99530.03
2023-05-17T03:59:49.628Z,99532.66
2023-05-17T04:02:17.304Z,99540.50
2023-05-17T04:04:51.741Z,99532.47
2023-05-17T04:07:19.480Z,99529.06
2023-05-17T04:09:46.924Z,99541.41
2023-05-17T04:12:15.512Z,99546.53
2023-05-17T04:14:42.658Z,99548.41
2023-05-17T04:17:10.106Z,99559.69
2023-05-17T04:19:37.647Z,99571.13
2023-05-17T04:22:05.223Z,99571.16
2023-05-17T04:24:32.403Z,99586.16
2023-05-17T04:27:01.337Z,99587.84
2023-05-17T04:29:29.933Z,99589.44
2023-05-17T04:31:58.069Z,99579.78
2023-05-17T04:34:25.436Z,99586.13
2023-05-17T04:36:53.298Z,99590.34
2023-05-17T04:39:21.332Z,99592.94
2023-05-17T04:41:48.832Z,99591.41
2023-05-17T04:44:16.989Z,99597.66
2023-05-17T04:46:46.173Z,99601.97
2023-05-17T04:49:13.475Z,99596.69
2023-05-17T04:51:42.053Z,99594.38
2023-05-17T04:54:09.848Z,99595.09
2023-05-17T04:56:39.073Z,99608.13
2023-05-17T04:59:06.109Z,99599.91
2023-05-17T05:01:35.615Z,99605.59
2023-05-17T05:04:07.538Z,99617.13
2023-05-17T05:06:41.171Z,99617.09
2023-05-17T05:09:08.859Z,99625.19
2023-05-17T05:11:37.237Z,99626.91
2023-05-17T05:14:16.513Z,99627.00
2023-05-17T05:16:44.880Z,99634.16
2023-05-17T05:19:13.832Z,99641.16
2023-05-17T05:21:41.236Z,99640.34
2023-05-17T05:24:09.176Z,99642.97
2023-05-17T05:26:36.849Z,99645.03
2023-05-17T05:29:04.438Z,99642.28
2023-05-17T05:31:33.702Z,99649.16
2023-05-17T05:34:01.500Z,99659.00
2023-05-17T05:36:28.636Z,99662.22
2023-05-17T05:38:56.064Z,99671.00
2023-05-17T05:41:23.669Z,99684.38
2023-05-17T05:43:53.021Z,99683.78
2023-05-17T05:46:20.805Z,99688.59
2023-05-17T05:48:47.962Z,99682.59
2023-05-17T05:51:22.739Z,99687.06
2023-05-17T05:53:51.366Z,99692.84
2023-05-17T05:56:18.708Z,99692.97
2023-05-17T05:58:47.006Z,99696.75
2023-05-17T06:01:14.466Z,99703.63
2023-05-17T06:03:41.956Z,99710.69
2023-05-17T06:06:09.513Z,99715.50
2023-05-17T06:08:36.806Z,99715.97
2023-05-17T06:11:04.332Z,99717.28
2023-05-17T06:13:31.848Z,99715.38
2023-05-17T06:15:59.872Z,99722.22
2023-05-17T06:18:28.274Z,99723.91
2023-05-17T06:20:55.819Z,99733.63
2023-05-17T06:23:23.317Z,99735.75
2023-05-17T06:25:51.689Z,99738.97
2023-05-17T06:28:20.020Z,99740.31
2023-05-17T06:30:47.532Z,99741.78
2023-05-17T06:33:15.276Z,99736.59
2023-05-17T06:35:55.545Z,99750.91
2023-05-17T06:38:24.239Z,99750.66
2023-05-17T06:40:56.032Z,99752.34
2023-05-17T06:43:23.589Z,99758.56
2023-05-17T06:45:51.479Z,99759.66
2023-05-17T06:48:18.849Z,99763.09
2023-05-17T06:50:46.578Z,99753.56
2023-05-17T06:53:14.100Z,99758.94
2023-05-17T06:55:43.688Z,99758.13
2023-05-17T06:58:11.190Z,99764.84
2023-05-17T07:00:38.596Z,99765.03
2023-05-17T07:03:06.179Z,99769.28
2023-05-17T07:05:34.681Z,99784.09
2023-05-17T07:08:02.091Z,99777.94
2023-05-17T07:10:29.549Z,99791.25
2023-05-17T07:12:58.636Z,99777.41
2023-05-17T07:15:27.066Z,99790.53
2023-05-17T07:17:55.425Z,99792.31
2023-05-17T07:20:23.733Z,99794.25
2023-05-17T07:22:52.337Z,99792.31
2023-05-17T07:25:21.853Z,99801.94
2023-05-17T07:27:49.266Z,99806.31
2023-05-17T07:30:16.972Z,99813.41
2023-05-17T07:32:46.256Z,99811.94
2023-05-17T07:35:15.738Z,99812.91
2023-05-17T07:37:44.122Z,99815.44
2023-05-17T07:40:12.013Z,99817.53
2023-05-17T07:42:39.141Z,99812.19
2023-05-17T07:45:08.148Z,99808.53
2023-05-17T07:47:35.554Z,99818.78
2023-05-17T07:50:05.420Z,99820.50
2023-05-17T07:52:32.611Z,99814.22
2023-05-17T07:55:00.000Z,99829.31
2023-05-17T07:57:30.163Z,99821.28
2023-05-17T07:59:57.471Z,99833.75
2023-05-17T08:02:24.583Z,99835.19
2023-05-17T08:04:52.255Z,99831.66
2023-05-17T08:07:27.482Z,99827.84
2023-05-17T08:09:55.124Z,99839.97
2023-05-17T08:12:22.352Z,99833.94
2023-05-17T08:14:50.847Z,99830.06
2023-05-17T08:17:18.294Z,99830.84
2023-05-17T08:19:45.997Z,99834.34
2023-05-17T08:22:15.589Z,99838.59
2023-05-17T08:24:46.899Z,99831.59
2023-05-17T08:27:15.323Z,99836.38
2023-05-17T08:29:42.799Z,99841.66
2023-05-17T08:32:10.693Z,99843.69
2023-05-17T08:34:38.619Z,99843.69
2023-05-17T08:37:06.256Z,99837.31
2023-05-17T08:39:34.674Z,99841.34
2023-05-17T08:42:02.894Z,99839.88
2023-05-17T08:44:30.178Z,99856.47
2023-05-17T08:47:00.796Z,99853.47
2023-05-17T08:49:38.325Z,99841.00
2023-05-17T08:52:10.659Z,99851.44
2023-05-17T08:54:38.115Z,99850.50
2023-05-17T08:57:07.683Z,99844.13
2023-05-17T08:59:36.980Z,99843.78
2023-05-17T09:02:06.780Z,99854.50
2023-05-17T09:04:34.094Z,99858.34
2023-05-17T09:07:01.297Z,99859.44
2023-05-17T09:09:29.020Z,99848.81
2023-05-17T09:11:56.843Z,99856.38
2023-05-17T09:14:24.033Z,99850.16
2023-05-17T09:16:58.194Z,99846.31
2023-05-17T09:19:25.684Z,99841.56
2023-05-17T09:21:54.908Z,99850.25
2023-05-17T09:24:36.086Z,99849.25
2023-05-17T09:27:04.715Z,99856.06
2023-05-17T09:29:33.249Z,99869.16
2023-05-17T09:32:19.151Z,99872.72
2023-05-17T09:34:47.380Z,99880.44
2023-05-17T09:37:19.799Z,99879.47
2023-05-17T09:39:48.011Z,99872.34
2023-05-17T09:42:17.220Z,99873.88
2023-05-17T09:44:57.978Z,99865.19
2023-05-17T09:47:30.386Z,99864.59
2023-05-17T09:50:03.570Z,99867.22
2023-05-17T09:52:32.344Z,99864.56
2023-05-17T09:55:01.445Z,99866.03
2023-05-17T09:57:37.280Z,99875.81
2023-05-17T10:00:10.119Z,99887.75
2023-05-17T10:02:38.388Z,99876.06
2023-05-17T10:05:09.517Z,99894.75
2023-05-17T10:07:39.549Z,99892.19
2023-05-17T10:10:08.650Z,99878.19
2023-05-17T10:12:39.560Z,99884.44
2023-05-17T10:15:08.127Z,99874.69
2023-05-17T10:17:39.574Z,99871.81
2023-05-17T10:20:09.205Z,99869.03
2023-05-17T10:22:38.114Z,99878.75
2023-05-17T10:25:06.217Z,99883.25
2023-05-17T10:27:35.591Z,99879.59
2023-05-17T10:30:03.381Z,99895.66
2023-05-17T10:32:31.398Z,99898.16
2023-05-17T10:35:10.312Z,99901.75
2023-05-17T10:37:40.772Z,99905.75
2023-05-17T10:40:13.975Z,99892.72
2023-05-17T10:42:45.954Z,99906.00
2023-05-17T10:45:13.982Z,99899.75
2023-05-17T10:47:47.104Z,99897.03
2023-05-17T10:50:15.483Z,99905.72
2023-05-17T10:52:50.915Z,99893.13
2023-05-17T10:55:23.547Z,99908.97
2023-05-17T10:58:17.329Z,99904.19
2023-05-17T11:00:51.252Z,99907.09
2023-05-17T11:03:26.972Z,99912.72
2023-05-17T11:06:24.540Z,99905.63
2023-05-17T11:09:14.086Z,99909.47
2023-05-17T11:12:06.463Z,99904.09
2023-05-17T11:14:45.573Z,99909.56
2023-05-17T11:17:20.238Z,99907.66
2023-05-17T11:19:59.434Z,99903.06
2023-05-17T11:22:37.195Z,99903.25
2023-05-17T11:25:08.879Z,99904.19
2023-05-17T11:27:47.578Z,99905.03
2023-05-17T11:30:20.052Z,99897.81
2023-05-17T11:32:52.591Z,99912.81
2023-05-17T11:35:25.096Z,99903.78
2023-05-17T11:37:54.718Z,99907.78
2023-05-17T11:40:28.682Z,99912.78
2023-05-17T11:43:21.404Z,99917.31
2023-05-17T11:45:57.862Z,99918.19
2023-05-17T11:48:27.001Z,99919.44
2023-05-17T11:50:56.972Z,99916.47
2023-05-17T11:53:27.504Z,99917.91
2023-05-17T11:55:56.403Z,99923.63
2023-05-17T11:58:27.328Z,99921.91
2023-05-17T12:00:56.948Z,99925.47
2023-05-17T12:03:25.804Z,99924.56
2023-05-17T12:06:04.975Z,99929.19
2023-05-17T12:08:37.162Z,99931.72
2023-05-17T12:11:06.537Z,99943.31
2023-05-17T12:13:35.979Z,99942.94
2023-05-17T12:16:08.642Z,99934.19
2023-05-17T12:18:38.249Z,99939.19
2023-05-17T12:21:06.478Z,99938.84
2023-05-17T12:23:35.780Z,99942.59
2023-05-17T12:26:17.745Z,99940.69
2023-05-17T12:28:46.480Z,99947.59
2023-05-17T12:31:22.924Z,99949.41
2023-05-17T12:33:51.323Z,99949.53
2023-05-17T12:36:25.906Z,99950.19
2023-05-17T12:38:56.484Z,99943.94
2023-05-17T12:41:28.875Z,99944.97
2023-05-17T12:44:06.143Z,99942.03
2023-05-17T12:46:34.357Z,99950.34
2023-05-17T12:49:09.925Z,99960.09
2023-05-17T12:51:45.219Z,99954.91
2023-05-17T12:54:26.764Z,99957.94
2023-05-17T12:56:54.402Z,99955.22
2023-05-17T12:59:22.121Z,99967.19
2023-05-17T13:01:51.528Z,99969.44
2023-05-17T13:04:34.414Z,99970.63
2023-05-17T13:07:04.755Z,99974.91
2023-05-17T13:09:33.556Z,99971.88
2023-05-17T13:12:03.044Z,99979.53
2023-05-17T13:14:45.274Z,99972.19
2023-05-17T13:17:37.249Z,99968.94
2023-05-17T13:20:07.138Z,99968.09
2023-05-17T13:22:36.421Z,99976.97
2023-05-17T13:25:04.365Z,99976.53
2023-05-17T13:27:33.756Z,99980.09
2023-05-17T13:30:01.362Z,99977.16
2023-05-17T13:32:28.755Z,100001.16
2023-05-17T13:34:57.042Z,99990.50
2023-05-17T13:37:24.085Z,99991.72
2023-05-17T13:39:54.879Z,99995.84
2023-05-17T13:42:22.833Z,100001.75
2023-05-17T13:44:50.372Z,99992.63
2023-05-17T13:47:18.028Z,99990.91
2023-05-17T13:49:47.247Z,99995.06
2023-05-17T13:52:15.560Z,99998.38
2023-05-17T13:54:50.195Z,99995.25
2023-05-17T13:57:18.794Z,99994.41
2023-05-17T13:59:50.754Z,99996.00
2023-05-17T14:02:17.793Z,99999.59
2023-05-17T14:04:45.274Z,100005.84
2023-05-17T14:07:12.963Z,100010.56
2023-05-17T14:09:40.217Z,100009.44
2023-05-17T14:12:08.292Z,100004.03
2023-05-17T14:14:36.589Z,100011.25
2023-05-17T14:17:04.275Z,100008.75
2023-05-17T14:19:32.653Z,100012.00
2023-05-17T14:21:59.898Z,100018.91
2023-05-17T14:24:27.465Z,100015.66
2023-05-17T14:26:54.919Z,100013.69
2023-05-17T14:29:22.371Z,100017.81
2023-05-17T14:31:51.004Z,100016.53
2023-05-17T14:34:18.386Z,100015.56
2023-05-17T14:36:46.757Z,100027.19
2023-05-17T14:39:14.434Z,100021.03
2023-05-17T14:41:45.888Z,100026.06
2023-05-17T14:44:13.968Z,100039.16
2023-05-17T14:46:41.518Z,100041.75
2023-05-17T14:49:09.285Z,100045.56
2023-05-17T14:51:36.795Z,100046.75
2023-05-17T14:54:04.107Z,100042.19
2023-05-17T14:56:32.481Z,100042.53
2023-05-17T14:59:00.393Z,100048.78
2023-05-17T15:01:28.390Z,100045.81
2023-05-17T15:03:57.245Z,100035.22
2023-05-17T15:06:27.547Z,100038.53
2023-05-17T15:08:55.247Z,100030.50
2023-05-17T15:11:24.598Z,100035.69
2023-05-17T15:13:51.898Z,100040.06
2023-05-17T15:16:19.714Z,100037.09
2023-05-17T15:18:48.691Z,100027.22
2023-05-17T15:21:17.996Z,100022.81
2023-05-17T15:23:46.420Z,100032.75
2023-05-17T15:26:13.909Z,100034.63
2023-05-17T15:28:43.356Z,100034.47
2023-05-17T15:31:11.899Z,100032.88
2023-05-17T15:33:39.859Z,100041.13
2023-05-17T15:36:07.526Z,100043.84
2023-05-17T15:38:34.922Z,100042.97
2023-05-17T15:41:05.272Z,100050.84
2023-05-17T15:43:35.223Z,100060.59
2023-05-17T15:46:03.547Z,100057.09
2023-05-17T15:48:31.135Z,100057.91
2023-05-17T15:50:59.097Z,100056.16
2023-05-17T15:53:33.870Z,100053.59
2023-05-17T15:56:02.708Z,100057.22
2023-05-17T15:58:33.724Z,100057.22
2023-05-17T16:01:05.433Z,100064.38
2023-05-17T16:03:33.662Z,100061.59
2023-05-17T16:06:03.266Z,100066.72
2023-05-17T16:08:31.040Z,100077.16
2023-05-17T16:11:00.340Z,100076.16
2023-05-17T16:13:29.583Z,100077.75
2023-05-17T16:15:58.385Z,100082.19
2023-05-17T16:18:27.011Z,100077.75
2023-05-17T16:21:03.698Z,100080.25
2023-05-17T16:23:31.776Z,100087.94
2023-05-17T16:26:00.364Z,100095.16
2023-05-17T16:28:28.857Z,100088.25
2023-05-17T16:30:57.260Z,100099.59
2023-05-17T16:33:24.838Z,100097.75
2023-05-17T16:35:52.342Z,100102.91
2023-05-17T16:38:19.800Z,100094.06
2023-05-17T16:40:49.233Z,100092.28
2023-05-17T16:43:17.809Z,100100.31
2023-05-17T16:45:46.730Z,100095.22
2023-05-17T16:48:15.957Z,100102.44
2023-05-17T16:50:44.415Z,100101.56
2023-05-17T16:53:12.660Z,100099.31
2023-05-17T16:55:39.867Z,100094.13
2023-05-17T16:58:07.658Z,100095.25
2023-05-17T17:00:35.409Z,100089.13
2023-05-17T17:03:02.638Z,100102.56
2023-05-17T17:05:30.174Z,100102.75
2023-05-17T17:08:03.560Z,100096.09
2023-05-17T17:10:31.697Z,100103.13
2023-05-17T17:13:05.319Z,100111.06
2023-05-17T17:15:32.812Z,100113.72
2023-05-17T17:18:01.270Z,100110.41
2023-05-17T17:20:29.127Z,100114.97
2023-05-17T17:22:58.785Z,100120.34
2023-05-17T17:25:26.437Z,100119.50
2023-05-17T17:27:55.123Z,100122.25
2023-05-17T17:30:22.833Z,100128.47
2023-05-17T17:32:50.286Z,100127.75
2023-05-17T17:35:17.633Z,100131.16
2023-05-17T17:37:45.100Z,100137.47
2023-05-17T17:40:13.311Z,100134.75
2023-05-17T17:42:42.571Z,100141.25
2023-05-17T17:45:10.498Z,100138.66
2023-05-17T17:47:37.963Z,100133.41
2023-05-17T17:50:05.883Z,100129.97
2023-05-17T17:52:34.431Z,100139.69
2023-05-17T17:55:02.021Z,100146.91
2023-05-17T17:57:32.271Z,100158.34
2023-05-17T18:00:00.319Z,100171.75
2023-05-17T18:02:27.583Z,100164.88
2023-05-17T18:04:55.042Z,100172.91
2023-05-17T18:07:22.270Z,100159.88
2023-05-17T18:09:49.855Z,100169.50
2023-05-17T18:12:17.179Z,100165.16
2023-05-17T18:14:44.763Z,100167.81
2023-05-17T18:17:12.201Z,100158.16
2023-05-17T18:19:39.581Z,100160.09
2023-05-17T18:22:07.067Z,100160.13
2023-05-17T18:24:35.537Z,100165.81
2023-05-17T18:27:04.091Z,100172.19
2023-05-17T18:29:37.950Z,100162.44
2023-05-17T18:32:07.038Z,100168.00
2023-05-17T18:34:36.580Z,100170.88
2023-05-17T18:37:05.347Z,100176.28
2023-05-17T18:39:35.689Z,100184.16
2023-05-17T18:42:03.320Z,100182.38
2023-05-17T18:44:31.620Z,100185.97
2023-05-17T18:46:59.102Z,100176.78
2023-05-17T18:49:28.040Z,100189.19
2023-05-17T18:51:56.659Z,100191.69
2023-05-17T18:54:25.962Z,100205.25
2023-05-17T18:56:53.780Z,100210.09
2023-05-17T18:59:24.558Z,100205.13
2023-05-17T19:01:52.380Z,100224.38
2023-05-17T19:04:20.239Z,100216.69
2023-05-17T19:06:48.382Z,100220.19
2023-05-17T19:09:16.482Z,100209.19
2023-05-17T19:11:43.894Z,100213.78
2023-05-17T19:14:12.216Z,100213.47
2023-05-17T19:16:42.450Z,100222.28
2023-05-17T19:19:16.829Z,100213.63
2023-05-17T19:21:46.392Z,100220.19
2023-05-17T19:24:13.869Z,100218.22
2023-05-17T19:26:41.900Z,100217.34
2023-05-17T19:29:09.912Z,100216.63
2023-05-17T19:31:38.801Z,100217.53
2023-05-17T19:34:06.292Z,100210.03
2023-05-17T19:36:33.992Z,100213.06
2023-05-17T19:39:08.867Z,100216.09
2023-05-17T19:41:37.467Z,100212.44
2023-05-17T19:44:07.445Z,100212.31
2023-05-17T19:46:35.155Z,100215.72
2023-05-17T19:49:03.582Z,100218.38
2023-05-17T19:51:32.208Z,100216.44
2023-05-17T19:54:01.208Z,100212.91
2023-05-17T19:56:30.447Z,100221.88
2023-05-17T19:58:58.171Z,100219.22
2023-05-17T20:01:27.439Z,100221.84
2023-05-17T20:03:55.333Z,100229.09
2023-05-17T20:06:22.703Z,100226.75
2023-05-17T20:08:50.388Z,100223.09
2023-05-17T20:11:24.254Z,100227.31
2023-05-17T20:13:52.216Z,100231.66
2023-05-17T20:16:19.939Z,100231.56
2023-05-17T20:18:48.688Z,100239.38
2023-05-17T20:21:24.288Z,100242.78
2023-05-17T20:23:57.259Z,100241.28
2023-05-17T20:26:27.585Z,100239.34
2023-05-17T20:29:01.475Z,100239.25
2023-05-17T20:31:29.138Z,100233.00
2023-05-17T20:33:56.840Z,100233.97
2023-05-17T20:36:24.790Z,100237.72
2023-05-17T20:38:53.156Z,100235.06
2023-05-17T20:41:21.001Z,100243.16
2023-05-17T20:43:50.246Z,100252.81
2023-05-17T20:46:24.413Z,100250.88
2023-05-17T20:48:54.017Z,100246.19
2023-05-17T20:51:22.715Z,100250.41
2023-05-17T20:53:50.946Z,100247.91
2023-05-17T20:56:19.668Z,100262.63
2023-05-17T20:58:48.281Z,100271.09
2023-05-17T21:01:16.020Z,100266.69
2023-05-17T21:03:43.704Z,100278.84
2023-05-17T21:06:15.043Z,100280.16
2023-05-17T21:08:43.168Z,100280.59
2023-05-17T21:11:10.443Z,100281.88
2023-05-17T21:13:37.833Z,100278.28
2023-05-17T21:16:11.414Z,100281.97
2023-05-17T21:18:41.412Z,100286.34
2023-05-17T21:21:08.848Z,100286.13
2023-05-17T21:23:36.537Z,100278.38
2023-05-17T21:26:03.862Z,100271.69
2023-05-17T21:28:31.263Z,100275.56
2023-05-17T21:30:58.770Z,100263.56
2023-05-17T21:33:26.163Z,100280.28
2023-05-17T21:35:53.734Z,100264.59
2023-05-17T21:38:22.057Z,100268.09
2023-05-17T21:40:49.503Z,100268.91
2023-05-17T21:43:17.028Z,100270.19
2023-05-17T21:45:45.464Z,100273.41
2023-05-17T21:48:13.113Z,100271.38
2023-05-17T21:50:40.311Z,100274.75
2023-05-17T21:53:08.134Z,100271.13
2023-05-17T21:55:36.983Z,100267.66
2023-05-17T21:58:20.855Z,100269.38
2023-05-17T22:00:50.174Z,100271.91
2023-05-17T22:03:17.501Z,100275.31
2023-05-17T22:05:45.092Z,100280.59
2023-05-17T22:08:12.533Z,100278.16
2023-05-17T22:10:46.961Z,100289.50
2023-05-17T22:13:18.577Z,100286.53
2023-05-17T22:15:46.371Z,100279.25
2023-05-17T22:18:14.661Z,100284.34
2023-05-17T22:20:42.239Z,100286.00
2023-05-17T22:23:10.530Z,100294.97
2023-05-17T22:25:51.532Z,100292.34
2023-05-17T22:28:18.796Z,100279.84
2023-05-17T22:30:46.840Z,100284.22
2023-05-17T22:33:16.665Z,100291.34
2023-05-17T22:35:44.218Z,100285.31
2023-05-17T22:38:11.745Z,100295.03
2023-05-17T22:40:40.058Z,100296.97
2023-05-17T22:43:09.118Z,100304.28
2023-05-17T22:45:36.936Z,100306.88
2023-05-17T22:48:07.476Z,100302.47
2023-05-17T22:50:36.567Z,100309.50
2023-05-17T22:53:03.884Z,100304.13
2023-05-17T22:55:31.711Z,100305.88
2023-05-17T22:58:01.327Z,100301.28
2023-05-17T23:00:34.898Z,100303.09
2023-05-17T23:03:02.033Z,100304.00
2023-05-17T23:05:29.440Z,100301.59
2023-05-17T23:08:01.359Z,100303.44
2023-05-17T23:10:34.932Z,100301.47
2023-05-17T23:13:02.427Z,100293.66
2023-05-17T23:15:34.627Z,100294.47
2023-05-17T23:18:03.461Z,100297.22
2023-05-17T23:20:31.492Z,100290.19
2023-05-17T23:22:59.883Z,100291.91
2023-05-17T23:25:29.598Z,100290.25
2023-05-17T23:28:00.105Z,100290.31
2023-05-17T23:30:28.204Z,100290.50
2023-05-17T23:32:55.507Z,100288.91
2023-05-17T23:35:24.218Z,100296.03
2023-05-17T23:37:52.023Z,100290.63
2023-05-17T23:40:19.783Z,100290.00
2023-05-17T23:42:47.266Z,100294.28
2023-05-17T23:45:15.888Z,100299.34
2023-05-17T23:47:43.301Z,100303.84
2023-05-17T23:50:11.060Z,100300.34
2023-05-17T23:52:39.434Z,100301.13
2023-05-17T23:55:07.964Z,100309.91
2023-05-17T23:57:35.866Z,100311.94
